Hlavní strana
METAR-TAF:

METAR-TAF

Letiště :

Kake, Aljaška, Spojené státy americké

zeměpisná šířka: 56-57N, zeměpisná délka: 133-54W, výška: 52 m

Aktuální stav počasí

Zpráva byla vytvořena před 31 minutami, v 13:56 UTC
Východojihovýchodní vítr 9 kt s nárazy do 15 kt
Teplota 3°C
Vlhkost vzduchu 93%
Tlak 1010 hPa
Viditelnost: 9.7 km
Zataženo ve výšce 2200 ft
déšť, kouřmo

METAR: PAFE 211356Z AUTO 11009G15KT 6SM RA BR OVC022 03/02 A2983 RMK AO2 SLP114 P0007 T00330022 $

Čas: 06:27 (14:27 UTC)


TAF: chybějící

Stav a předpovědi počasí z více než 4 000 letišť (zprávy METAR a TAF).

Červené a žluté tečky na mapě představují dostupné meteorologické stanice.

Když kurzor umístíte na tečku, zobrazí se název stanice.

Pak kliknutím zobrazíte stav a předpověď počasí.

Chcete-li změnit mapu, kliknutím na zelené tlačítko se znaménkem +mapu přiblížíte, kliknutím na zelené tlačítko se znaménkem – mapu oddálíte a kliknutím na zelené šipky přejdete na sousední mapy.


METAR-TAF: